sensor_id;sensor_type;location;lat;lon;timestamp;temperature;humidity
65584;DHT22;62116;43.582;1.470;2023-04-24T00:02:10;13.28;88.93
65584;DHT22;62116;43.582;1.470;2023-04-24T00:04:37;13.31;89.02
65584;DHT22;62116;43.582;1.470;2023-04-24T00:07:06;13.35;88.92
65584;DHT22;62116;43.582;1.470;2023-04-24T00:09:32;13.31;88.84
65584;DHT22;62116;43.582;1.470;2023-04-24T00:11:57;13.28;88.79
65584;DHT22;62116;43.582;1.470;2023-04-24T00:14:23;13.25;88.57
65584;DHT22;62116;43.582;1.470;2023-04-24T00:16:48;13.24;88.61
65584;DHT22;62116;43.582;1.470;2023-04-24T00:19:14;13.24;88.40
65584;DHT22;62116;43.582;1.470;2023-04-24T00:21:40;13.17;88.24
65584;DHT22;62116;43.582;1.470;2023-04-24T00:24:06;13.17;88.56
65584;DHT22;62116;43.582;1.470;2023-04-24T00:26:31;13.21;88.73
65584;DHT22;62116;43.582;1.470;2023-04-24T00:28:57;13.23;88.77
65584;DHT22;62116;43.582;1.470;2023-04-24T00:31:22;13.20;88.74
65584;DHT22;62116;43.582;1.470;2023-04-24T00:33:47;13.20;88.49
65584;DHT22;62116;43.582;1.470;2023-04-24T00:36:13;13.17;88.46
65584;DHT22;62116;43.582;1.470;2023-04-24T00:38:38;13.17;88.61
65584;DHT22;62116;43.582;1.470;2023-04-24T00:41:04;13.20;88.62
65584;DHT22;62116;43.582;1.470;2023-04-24T00:43:29;13.17;88.62
65584;DHT22;62116;43.582;1.470;2023-04-24T00:45:55;13.17;88.75
65584;DHT22;62116;43.582;1.470;2023-04-24T00:48:21;13.14;88.29
65584;DHT22;62116;43.582;1.470;2023-04-24T00:50:46;13.11;88.37
65584;DHT22;62116;43.582;1.470;2023-04-24T00:53:11;13.07;88.22
65584;DHT22;62116;43.582;1.470;2023-04-24T00:55:37;13.06;88.49
65584;DHT22;62116;43.582;1.470;2023-04-24T00:58:02;13.06;88.51
65584;DHT22;62116;43.582;1.470;2023-04-24T01:00:28;13.07;88.37
65584;DHT22;62116;43.582;1.470;2023-04-24T01:02:54;13.06;88.44
65584;DHT22;62116;43.582;1.470;2023-04-24T01:05:23;13.01;88.05
65584;DHT22;62116;43.582;1.470;2023-04-24T01:07:48;13.01;87.95
65584;DHT22;62116;43.582;1.470;2023-04-24T01:10:15;12.99;87.94
65584;DHT22;62116;43.582;1.470;2023-04-24T01:12:40;12.99;87.94
65584;DHT22;62116;43.582;1.470;2023-04-24T01:15:06;12.96;87.94
65584;DHT22;62116;43.582;1.470;2023-04-24T01:17:33;12.91;87.74
65584;DHT22;62116;43.582;1.470;2023-04-24T01:19:59;12.96;88.17
65584;DHT22;62116;43.582;1.470;2023-04-24T01:22:25;12.93;88.15
65584;DHT22;62116;43.582;1.470;2023-04-24T01:24:54;12.91;88.16
65584;DHT22;62116;43.582;1.470;2023-04-24T01:27:19;12.94;87.96
65584;DHT22;62116;43.582;1.470;2023-04-24T01:29:45;12.91;87.70
65584;DHT22;62116;43.582;1.470;2023-04-24T01:32:13;12.91;87.53
65584;DHT22;62116;43.582;1.470;2023-04-24T01:34:39;12.93;87.85
65584;DHT22;62116;43.582;1.470;2023-04-24T01:37:05;12.96;87.68
65584;DHT22;62116;43.582;1.470;2023-04-24T01:39:30;12.94;87.70
65584;DHT22;62116;43.582;1.470;2023-04-24T01:41:56;12.97;87.48
65584;DHT22;62116;43.582;1.470;2023-04-24T01:44:24;12.94;87.32
65584;DHT22;62116;43.582;1.470;2023-04-24T01:46:50;12.89;87.10
65584;DHT22;62116;43.582;1.470;2023-04-24T01:49:16;12.89;87.16
65584;DHT22;62116;43.582;1.470;2023-04-24T01:51:41;12.86;87.11
65584;DHT22;62116;43.582;1.470;2023-04-24T01:54:06;12.84;87.13
65584;DHT22;62116;43.582;1.470;2023-04-24T01:56:36;12.81;87.41
65584;DHT22;62116;43.582;1.470;2023-04-24T01:59:06;12.76;87.35
65584;DHT22;62116;43.582;1.470;2023-04-24T02:01:38;12.75;87.25
65584;DHT22;62116;43.582;1.470;2023-04-24T02:04:05;12.75;87.32
65584;DHT22;62116;43.582;1.470;2023-04-24T02:06:31;12.70;87.22
65584;DHT22;62116;43.582;1.470;2023-04-24T02:09:00;12.72;87.36
65584;DHT22;62116;43.582;1.470;2023-04-24T02:11:26;12.70;87.52
65584;DHT22;62116;43.582;1.470;2023-04-24T02:13:52;12.67;87.41
65584;DHT22;62116;43.582;1.470;2023-04-24T02:16:17;12.61;86.96
65584;DHT22;62116;43.582;1.470;2023-04-24T02:18:43;12.57;87.32
65584;DHT22;62116;43.582;1.470;2023-04-24T02:21:09;12.57;87.38
65584;DHT22;62116;43.582;1.470;2023-04-24T02:23:35;12.57;87.54
65584;DHT22;62116;43.582;1.470;2023-04-24T02:26:00;12.60;87.77
65584;DHT22;62116;43.582;1.470;2023-04-24T02:28:26;12.60;87.54
65584;DHT22;62116;43.582;1.470;2023-04-24T02:30:51;12.59;87.36
65584;DHT22;62116;43.582;1.470;2023-04-24T02:33:16;12.60;87.58
65584;DHT22;62116;43.582;1.470;2023-04-24T02:35:42;12.61;87.63
65584;DHT22;62116;43.582;1.470;2023-04-24T02:38:07;12.66;86.96
65584;DHT22;62116;43.582;1.470;2023-04-24T02:40:33;12.66;87.25
65584;DHT22;62116;43.582;1.470;2023-04-24T02:42:58;12.66;87.62
65584;DHT22;62116;43.582;1.470;2023-04-24T02:45:24;12.70;87.42
65584;DHT22;62116;43.582;1.470;2023-04-24T02:47:49;12.70;87.51
65584;DHT22;62116;43.582;1.470;2023-04-24T02:50:14;12.69;87.67
65584;DHT22;62116;43.582;1.470;2023-04-24T02:52:40;12.73;87.54
65584;DHT22;62116;43.582;1.470;2023-04-24T02:55:06;12.73;87.41
65584;DHT22;62116;43.582;1.470;2023-04-24T02:57:33;12.73;87.37
65584;DHT22;62116;43.582;1.470;2023-04-24T02:59:58;12.73;87.52
65584;DHT22;62116;43.582;1.470;2023-04-24T03:02:24;12.70;87.56
65584;DHT22;62116;43.582;1.470;2023-04-24T03:04:49;12.70;87.26
65584;DHT22;62116;43.582;1.470;2023-04-24T03:07:14;12.70;87.40
65584;DHT22;62116;43.582;1.470;2023-04-24T03:09:40;12.75;87.22
65584;DHT22;62116;43.582;1.470;2023-04-24T03:12:06;12.75;87.38
65584;DHT22;62116;43.582;1.470;2023-04-24T03:14:31;12.72;87.51
65584;DHT22;62116;43.582;1.470;2023-04-24T03:16:57;12.75;87.66
65584;DHT22;62116;43.582;1.470;2023-04-24T03:19:22;12.76;87.65
65584;DHT22;62116;43.582;1.470;2023-04-24T03:21:48;12.79;87.67
65584;DHT22;62116;43.582;1.470;2023-04-24T03:24:14;12.83;86.46
65584;DHT22;62116;43.582;1.470;2023-04-24T03:26:39;12.83;86.64
65584;DHT22;62116;43.582;1.470;2023-04-24T03:29:04;12.79;86.83
65584;DHT22;62116;43.582;1.470;2023-04-24T03:31:30;12.77;87.14
65584;DHT22;62116;43.582;1.470;2023-04-24T03:33:55;12.75;86.99
65584;DHT22;62116;43.582;1.470;2023-04-24T03:36:20;12.76;85.84
65584;DHT22;62116;43.582;1.470;2023-04-24T03:38:46;12.69;86.10
65584;DHT22;62116;43.582;1.470;2023-04-24T03:41:11;12.61;86.48
65584;DHT22;62116;43.582;1.470;2023-04-24T03:43:37;12.63;87.09
65584;DHT22;62116;43.582;1.470;2023-04-24T03:46:03;12.60;86.74
65584;DHT22;62116;43.582;1.470;2023-04-24T03:48:28;12.60;86.67
65584;DHT22;62116;43.582;1.470;2023-04-24T03:50:54;12.63;86.57
65584;DHT22;62116;43.582;1.470;2023-04-24T03:53:20;12.63;87.11
65584;DHT22;62116;43.582;1.470;2023-04-24T03:55:45;12.63;87.21
65584;DHT22;62116;43.582;1.470;2023-04-24T03:58:11;12.60;87.24
65584;DHT22;62116;43.582;1.470;2023-04-24T04:00:37;12.60;86.88
65584;DHT22;62116;43.582;1.470;2023-04-24T04:03:03;12.57;87.23
65584;DHT22;62116;43.582;1.470;2023-04-24T04:05:29;12.61;86.98
65584;DHT22;62116;43.582;1.470;2023-04-24T04:07:54;12.57;86.67
65584;DHT22;62116;43.582;1.470;2023-04-24T04:10:20;12.53;87.10
65584;DHT22;62116;43.582;1.470;2023-04-24T04:12:45;12.53;87.16
65584;DHT22;62116;43.582;1.470;2023-04-24T04:15:11;12.55;86.37
65584;DHT22;62116;43.582;1.470;2023-04-24T04:17:36;12.55;86.36
65584;DHT22;62116;43.582;1.470;2023-04-24T04:20:03;12.50;86.12
65584;DHT22;62116;43.582;1.470;2023-04-24T04:22:33;12.50;86.38
65584;DHT22;62116;43.582;1.470;2023-04-24T04:24:59;12.49;86.25
65584;DHT22;62116;43.582;1.470;2023-04-24T04:27:24;12.45;86.13
65584;DHT22;62116;43.582;1.470;2023-04-24T04:29:49;12.39;86.66
65584;DHT22;62116;43.582;1.470;2023-04-24T04:32:15;12.35;86.83
65584;DHT22;62116;43.582;1.470;2023-04-24T04:34:41;12.33;87.27
65584;DHT22;62116;43.582;1.470;2023-04-24T04:37:07;12.35;87.32
65584;DHT22;62116;43.582;1.470;2023-04-24T04:39:35;12.32;87.31
65584;DHT22;62116;43.582;1.470;2023-04-24T04:42:01;12.33;87.62
65584;DHT22;62116;43.582;1.470;2023-04-24T04:44:26;12.33;87.26
65584;DHT22;62116;43.582;1.470;2023-04-24T04:46:52;12.35;87.48
65584;DHT22;62116;43.582;1.470;2023-04-24T04:49:19;12.32;87.30
65584;DHT22;62116;43.582;1.470;2023-04-24T04:51:46;12.32;87.29
65584;DHT22;62116;43.582;1.470;2023-04-24T04:54:12;12.29;87.17
65584;DHT22;62116;43.582;1.470;2023-04-24T04:56:37;12.29;87.46
65584;DHT22;62116;43.582;1.470;2023-04-24T04:59:03;12.25;87.13
65584;DHT22;62116;43.582;1.470;2023-04-24T05:01:28;12.24;87.87
65584;DHT22;62116;43.582;1.470;2023-04-24T05:03:54;12.26;87.74
65584;DHT22;62116;43.582;1.470;2023-04-24T05:06:19;12.26;87.43
65584;DHT22;62116;43.582;1.470;2023-04-24T05:08:44;12.28;87.48
65584;DHT22;62116;43.582;1.470;2023-04-24T05:11:10;12.28;87.60
65584;DHT22;62116;43.582;1.470;2023-04-24T05:13:35;12.30;87.66
65584;DHT22;62116;43.582;1.470;2023-04-24T05:16:00;12.33;87.79
65584;DHT22;62116;43.582;1.470;2023-04-24T05:18:26;12.36;87.65
65584;DHT22;62116;43.582;1.470;2023-04-24T05:20:51;12.38;87.71
65584;DHT22;62116;43.582;1.470;2023-04-24T05:23:17;12.40;87.82
65584;DHT22;62116;43.582;1.470;2023-04-24T05:25:42;12.40;87.45
65584;DHT22;62116;43.582;1.470;2023-04-24T05:28:08;12.39;87.60
65584;DHT22;62116;43.582;1.470;2023-04-24T05:30:33;12.40;87.90
65584;DHT22;62116;43.582;1.470;2023-04-24T05:32:58;12.42;88.12
65584;DHT22;62116;43.582;1.470;2023-04-24T05:35:24;12.45;87.73
65584;DHT22;62116;43.582;1.470;2023-04-24T05:37:50;12.45;87.84
65584;DHT22;62116;43.582;1.470;2023-04-24T05:40:15;12.46;87.87
65584;DHT22;62116;43.582;1.470;2023-04-24T05:42:40;12.48;87.66
65584;DHT22;62116;43.582;1.470;2023-04-24T05:45:09;12.53;88.05
65584;DHT22;62116;43.582;1.470;2023-04-24T05:47:39;12.50;88.02
65584;DHT22;62116;43.582;1.470;2023-04-24T05:50:05;12.50;88.02
65584;DHT22;62116;43.582;1.470;2023-04-24T05:52:31;12.52;88.20
65584;DHT22;62116;43.582;1.470;2023-04-24T05:54:56;12.55;88.16
65584;DHT22;62116;43.582;1.470;2023-04-24T05:57:21;12.55;88.03
65584;DHT22;62116;43.582;1.470;2023-04-24T05:59:47;12.55;88.00
65584;DHT22;62116;43.582;1.470;2023-04-24T06:02:12;12.57;87.99
65584;DHT22;62116;43.582;1.470;2023-04-24T06:04:38;12.60;87.78
65584;DHT22;62116;43.582;1.470;2023-04-24T06:07:04;12.61;88.04
65584;DHT22;62116;43.582;1.470;2023-04-24T06:09:29;12.63;87.75
65584;DHT22;62116;43.582;1.470;2023-04-24T06:11:55;12.66;88.12
65584;DHT22;62116;43.582;1.470;2023-04-24T06:14:21;12.64;87.79
65584;DHT22;62116;43.582;1.470;2023-04-24T06:16:47;12.67;87.82
65584;DHT22;62116;43.582;1.470;2023-04-24T06:19:12;12.67;87.99
65584;DHT22;62116;43.582;1.470;2023-04-24T06:21:37;12.73;87.71
65584;DHT22;62116;43.582;1.470;2023-04-24T06:24:03;12.75;87.74
65584;DHT22;62116;43.582;1.470;2023-04-24T06:26:29;12.79;87.68
65584;DHT22;62116;43.582;1.470;2023-04-24T06:28:55;12.81;87.70
65584;DHT22;62116;43.582;1.470;2023-04-24T06:31:20;12.84;87.65
65584;DHT22;62116;43.582;1.470;2023-04-24T06:33:48;12.81;87.39
65584;DHT22;62116;43.582;1.470;2023-04-24T06:36:13;12.84;87.58
65584;DHT22;62116;43.582;1.470;2023-04-24T06:38:41;12.87;87.50
65584;DHT22;62116;43.582;1.470;2023-04-24T06:41:07;12.86;87.22
65584;DHT22;62116;43.582;1.470;2023-04-24T06:43:33;12.81;87.17
65584;DHT22;62116;43.582;1.470;2023-04-24T06:45:59;12.84;87.29
65584;DHT22;62116;43.582;1.470;2023-04-24T06:48:24;12.86;87.46
65584;DHT22;62116;43.582;1.470;2023-04-24T06:50:51;12.87;87.74
65584;DHT22;62116;43.582;1.470;2023-04-24T06:53:16;12.91;87.69
65584;DHT22;62116;43.582;1.470;2023-04-24T06:55:42;12.97;87.05
65584;DHT22;62116;43.582;1.470;2023-04-24T06:58:08;12.93;86.98
65584;DHT22;62116;43.582;1.470;2023-04-24T07:00:34;12.99;87.40
65584;DHT22;62116;43.582;1.470;2023-04-24T07:02:59;12.97;87.15
65584;DHT22;62116;43.582;1.470;2023-04-24T07:05:25;12.94;86.70
65584;DHT22;62116;43.582;1.470;2023-04-24T07:07:50;12.96;86.79
65584;DHT22;62116;43.582;1.470;2023-04-24T07:10:16;12.97;86.83
65584;DHT22;62116;43.582;1.470;2023-04-24T07:12:42;13.04;86.99
65584;DHT22;62116;43.582;1.470;2023-04-24T07:15:08;13.06;87.41
65584;DHT22;62116;43.582;1.470;2023-04-24T07:17:34;13.03;87.23
65584;DHT22;62116;43.582;1.470;2023-04-24T07:20:00;12.99;87.53
65584;DHT22;62116;43.582;1.470;2023-04-24T07:22:25;13.01;87.44
65584;DHT22;62116;43.582;1.470;2023-04-24T07:24:50;12.94;87.74
65584;DHT22;62116;43.582;1.470;2023-04-24T07:27:16;12.96;87.94
65584;DHT22;62116;43.582;1.470;2023-04-24T07:29:42;12.93;88.60
65584;DHT22;62116;43.582;1.470;2023-04-24T07:32:08;12.96;88.90
65584;DHT22;62116;43.582;1.470;2023-04-24T07:34:34;12.93;88.98
65584;DHT22;62116;43.582;1.470;2023-04-24T07:37:00;12.93;89.20
65584;DHT22;62116;43.582;1.470;2023-04-24T07:39:25;12.93;89.32
65584;DHT22;62116;43.582;1.470;2023-04-24T07:41:51;12.94;89.62
65584;DHT22;62116;43.582;1.470;2023-04-24T07:44:17;12.97;89.49
65584;DHT22;62116;43.582;1.470;2023-04-24T07:46:42;13.00;89.61
65584;DHT22;62116;43.582;1.470;2023-04-24T07:49:07;12.99;89.31
65584;DHT22;62116;43.582;1.470;2023-04-24T07:51:33;12.99;89.01
65584;DHT22;62116;43.582;1.470;2023-04-24T07:54:03;13.03;88.96
65584;DHT22;62116;43.582;1.470;2023-04-24T07:56:29;13.08;88.73
65584;DHT22;62116;43.582;1.470;2023-04-24T07:58:56;13.17;88.54
65584;DHT22;62116;43.582;1.470;2023-04-24T08:01:21;13.17;88.04
65584;DHT22;62116;43.582;1.470;2023-04-24T08:03:46;13.27;87.71
65584;DHT22;62116;43.582;1.470;2023-04-24T08:06:12;13.31;87.02
65584;DHT22;62116;43.582;1.470;2023-04-24T08:08:37;13.33;86.62
65584;DHT22;62116;43.582;1.470;2023-04-24T08:11:03;13.37;86.43
65584;DHT22;62116;43.582;1.470;2023-04-24T08:13:28;13.44;86.39
65584;DHT22;62116;43.582;1.470;2023-04-24T08:15:53;13.47;85.55
65584;DHT22;62116;43.582;1.470;2023-04-24T08:18:19;13.45;84.67
65584;DHT22;62116;43.582;1.470;2023-04-24T08:20:44;13.54;85.09
65584;DHT22;62116;43.582;1.470;2023-04-24T08:23:10;13.50;83.97
65584;DHT22;62116;43.582;1.470;2023-04-24T08:25:36;13.48;84.20
65584;DHT22;62116;43.582;1.470;2023-04-24T08:28:05;13.51;84.36
65584;DHT22;62116;43.582;1.470;2023-04-24T08:30:31;13.55;84.65
65584;DHT22;62116;43.582;1.470;2023-04-24T08:32:57;13.62;84.45
65584;DHT22;62116;43.582;1.470;2023-04-24T08:35:22;13.61;83.87
65584;DHT22;62116;43.582;1.470;2023-04-24T08:37:48;13.68;84.28
65584;DHT22;62116;43.582;1.470;2023-04-24T08:40:15;13.69;84.18
65584;DHT22;62116;43.582;1.470;2023-04-24T08:42:44;13.65;83.80
65584;DHT22;62116;43.582;1.470;2023-04-24T08:45:12;13.69;83.45
65584;DHT22;62116;43.582;1.470;2023-04-24T08:47:39;13.75;83.86
65584;DHT22;62116;43.582;1.470;2023-04-24T08:50:06;13.88;83.50
65584;DHT22;62116;43.582;1.470;2023-04-24T08:52:33;14.04;82.37
65584;DHT22;62116;43.582;1.470;2023-04-24T08:55:00;14.09;82.63
65584;DHT22;62116;43.582;1.470;2023-04-24T08:57:25;14.16;82.72
65584;DHT22;62116;43.582;1.470;2023-04-24T08:59:52;14.30;81.79
65584;DHT22;62116;43.582;1.470;2023-04-24T09:02:18;14.36;82.20
65584;DHT22;62116;43.582;1.470;2023-04-24T09:04:44;14.40;80.66
65584;DHT22;62116;43.582;1.470;2023-04-24T09:07:12;14.40;80.85
65584;DHT22;62116;43.582;1.470;2023-04-24T09:09:40;14.49;81.04
65584;DHT22;62116;43.582;1.470;2023-04-24T09:12:07;14.52;80.92
65584;DHT22;62116;43.582;1.470;2023-04-24T09:14:34;14.49;80.59
65584;DHT22;62116;43.582;1.470;2023-04-24T09:17:02;14.50;80.20
65584;DHT22;62116;43.582;1.470;2023-04-24T09:19:27;14.44;80.50
65584;DHT22;62116;43.582;1.470;2023-04-24T09:21:53;14.47;80.61
65584;DHT22;62116;43.582;1.470;2023-04-24T09:24:20;14.44;80.55
65584;DHT22;62116;43.582;1.470;2023-04-24T09:26:48;14.39;80.78
65584;DHT22;62116;43.582;1.470;2023-04-24T09:29:15;14.30;81.21
65584;DHT22;62116;43.582;1.470;2023-04-24T09:31:42;14.33;81.57
65584;DHT22;62116;43.582;1.470;2023-04-24T09:34:07;14.39;81.28
65584;DHT22;62116;43.582;1.470;2023-04-24T09:36:37;14.37;80.78
65584;DHT22;62116;43.582;1.470;2023-04-24T09:39:08;14.36;81.14
65584;DHT22;62116;43.582;1.470;2023-04-24T09:41:53;14.37;81.72
65584;DHT22;62116;43.582;1.470;2023-04-24T09:44:20;14.34;80.59
65584;DHT22;62116;43.582;1.470;2023-04-24T09:46:51;14.34;80.52
65584;DHT22;62116;43.582;1.470;2023-04-24T09:49:22;14.36;80.06
65584;DHT22;62116;43.582;1.470;2023-04-24T09:51:48;14.42;80.24
65584;DHT22;62116;43.582;1.470;2023-04-24T09:54:15;14.49;79.75
65584;DHT22;62116;43.582;1.470;2023-04-24T09:56:45;14.55;80.14
65584;DHT22;62116;43.582;1.470;2023-04-24T09:59:13;14.64;80.47
65584;DHT22;62116;43.582;1.470;2023-04-24T10:01:38;14.66;79.75
65584;DHT22;62116;43.582;1.470;2023-04-24T10:04:24;14.66;79.75
65584;DHT22;62116;43.582;1.470;2023-04-24T10:06:51;14.69;78.45
65584;DHT22;62116;43.582;1.470;2023-04-24T10:09:19;14.63;79.21
65584;DHT22;62116;43.582;1.470;2023-04-24T10:11:46;14.57;79.25
65584;DHT22;62116;43.582;1.470;2023-04-24T10:14:13;14.60;79.74
65584;DHT22;62116;43.582;1.470;2023-04-24T10:16:39;14.62;79.95
65584;DHT22;62116;43.582;1.470;2023-04-24T10:19:06;14.63;78.69
65584;DHT22;62116;43.582;1.470;2023-04-24T10:21:32;14.63;78.39
65584;DHT22;62116;43.582;1.470;2023-04-24T10:23:59;14.60;78.04
65584;DHT22;62116;43.582;1.470;2023-04-24T10:26:28;14.72;78.84
65584;DHT22;62116;43.582;1.470;2023-04-24T10:28:54;14.87;78.29
65584;DHT22;62116;43.582;1.470;2023-04-24T10:31:22;15.03;78.12
65584;DHT22;62116;43.582;1.470;2023-04-24T10:33:49;15.25;78.07
65584;DHT22;62116;43.582;1.470;2023-04-24T10:36:17;15.41;77.80
65584;DHT22;62116;43.582;1.470;2023-04-24T10:38:43;15.52;76.27
65584;DHT22;62116;43.582;1.470;2023-04-24T10:41:11;15.58;75.11
65584;DHT22;62116;43.582;1.470;2023-04-24T10:43:46;15.57;75.15
65584;DHT22;62116;43.582;1.470;2023-04-24T10:46:19;15.51;75.93
65584;DHT22;62116;43.582;1.470;2023-04-24T10:48:53;15.42;75.00
65584;DHT22;62116;43.582;1.470;2023-04-24T10:51:24;15.42;74.10
65584;DHT22;62116;43.582;1.470;2023-04-24T10:53:52;15.51;73.72
65584;DHT22;62116;43.582;1.470;2023-04-24T10:56:18;15.54;74.14
65584;DHT22;62116;43.582;1.470;2023-04-24T10:58:50;15.52;74.09
65584;DHT22;62116;43.582;1.470;2023-04-24T11:01:32;15.48;73.55
65584;DHT22;62116;43.582;1.470;2023-04-24T11:04:00;15.47;74.63
65584;DHT22;62116;43.582;1.470;2023-04-24T11:06:34;15.45;74.53
65584;DHT22;62116;43.582;1.470;2023-04-24T11:09:07;15.42;75.64
65584;DHT22;62116;43.582;1.470;2023-04-24T11:11:34;15.38;75.94
65584;DHT22;62116;43.582;1.470;2023-04-24T11:34:57;15.41;75.49
65584;DHT22;62116;43.582;1.470;2023-04-24T11:37:24;15.42;76.18
65584;DHT22;62116;43.582;1.470;2023-04-24T11:39:52;15.41;77.23
65584;DHT22;62116;43.582;1.470;2023-04-24T11:42:18;15.44;76.99
65584;DHT22;62116;43.582;1.470;2023-04-24T11:44:46;15.45;75.97
65584;DHT22;62116;43.582;1.470;2023-04-24T11:47:12;15.49;76.29
65584;DHT22;62116;43.582;1.470;2023-04-24T11:49:38;15.49;76.20
65584;DHT22;62116;43.582;1.470;2023-04-24T11:52:04;15.57;76.09
65584;DHT22;62116;43.582;1.470;2023-04-24T11:54:30;15.69;76.30
65584;DHT22;62116;43.582;1.470;2023-04-24T11:56:56;15.79;74.54
65584;DHT22;62116;43.582;1.470;2023-04-24T11:59:22;15.88;74.12
65584;DHT22;62116;43.582;1.470;2023-04-24T12:01:48;16.02;73.64
65584;DHT22;62116;43.582;1.470;2023-04-24T12:04:16;16.01;73.26
65584;DHT22;62116;43.582;1.470;2023-04-24T12:07:04;16.10;74.50
65584;DHT22;62116;43.582;1.470;2023-04-24T12:09:47;16.29;73.97
65584;DHT22;62116;43.582;1.470;2023-04-24T12:12:15;16.47;74.02
65584;DHT22;62116;43.582;1.470;2023-04-24T12:14:48;16.66;72.54
65584;DHT22;62116;43.582;1.470;2023-04-24T12:17:15;16.76;73.02
65584;DHT22;62116;43.582;1.470;2023-04-24T12:19:47;16.77;71.89
65584;DHT22;62116;43.582;1.470;2023-04-24T12:22:13;16.71;71.58
65584;DHT22;62116;43.582;1.470;2023-04-24T12:25:18;16.60;72.74
65584;DHT22;62116;43.582;1.470;2023-04-24T12:27:45;16.60;71.94
65584;DHT22;62116;43.582;1.470;2023-04-24T12:30:16;16.52;71.81
65584;DHT22;62116;43.582;1.470;2023-04-24T12:32:45;16.53;73.24
65584;DHT22;62116;43.582;1.470;2023-04-24T12:35:11;16.56;73.21
65584;DHT22;62116;43.582;1.470;2023-04-24T12:37:36;16.66;73.22
65584;DHT22;62116;43.582;1.470;2023-04-24T12:40:06;16.77;73.46
65584;DHT22;62116;43.582;1.470;2023-04-24T12:42:32;16.87;72.17
65584;DHT22;62116;43.582;1.470;2023-04-24T12:44:59;16.95;72.72
65584;DHT22;62116;43.582;1.470;2023-04-24T12:47:26;17.15;73.12
65584;DHT22;62116;43.582;1.470;2023-04-24T12:49:52;17.34;71.49
65584;DHT22;62116;43.582;1.470;2023-04-24T12:52:18;17.46;71.45
65584;DHT22;62116;43.582;1.470;2023-04-24T12:54:45;17.52;70.62
65584;DHT22;62116;43.582;1.470;2023-04-24T12:57:11;17.73;70.91
65584;DHT22;62116;43.582;1.470;2023-04-24T12:59:36;17.85;69.56
65584;DHT22;62116;43.582;1.470;2023-04-24T13:02:02;17.78;68.83
65584;DHT22;62116;43.582;1.470;2023-04-24T13:04:27;17.78;69.80
65584;DHT22;62116;43.582;1.470;2023-04-24T13:06:53;17.72;69.05
65584;DHT22;62116;43.582;1.470;2023-04-24T13:09:18;17.79;70.20
65584;DHT22;62116;43.582;1.470;2023-04-24T13:11:43;17.85;69.66
65584;DHT22;62116;43.582;1.470;2023-04-24T13:14:09;17.92;70.70
65584;DHT22;62116;43.582;1.470;2023-04-24T13:16:34;18.00;69.77
65584;DHT22;62116;43.582;1.470;2023-04-24T13:19:00;18.03;69.58
65584;DHT22;62116;43.582;1.470;2023-04-24T13:21:25;18.13;68.69
65584;DHT22;62116;43.582;1.470;2023-04-24T13:23:51;18.06;67.53
65584;DHT22;62116;43.582;1.470;2023-04-24T13:26:17;17.96;67.02
65584;DHT22;62116;43.582;1.470;2023-04-24T13:28:42;17.81;67.07
65584;DHT22;62116;43.582;1.470;2023-04-24T13:31:07;17.79;68.81
65584;DHT22;62116;43.582;1.470;2023-04-24T13:33:33;17.85;70.09
65584;DHT22;62116;43.582;1.470;2023-04-24T13:35:58;17.90;68.82
65584;DHT22;62116;43.582;1.470;2023-04-24T13:38:24;17.79;68.53
65584;DHT22;62116;43.582;1.470;2023-04-24T13:40:49;17.83;69.28
65584;DHT22;62116;43.582;1.470;2023-04-24T13:43:15;17.93;69.21
65584;DHT22;62116;43.582;1.470;2023-04-24T13:45:40;18.03;68.15
65584;DHT22;62116;43.582;1.470;2023-04-24T13:48:06;18.07;68.65
65584;DHT22;62116;43.582;1.470;2023-04-24T13:50:31;18.13;68.45
65584;DHT22;62116;43.582;1.470;2023-04-24T13:52:57;18.20;68.22
65584;DHT22;62116;43.582;1.470;2023-04-24T13:55:22;18.26;68.93
65584;DHT22;62116;43.582;1.470;2023-04-24T13:57:48;18.19;68.08
65584;DHT22;62116;43.582;1.470;2023-04-24T14:00:14;18.20;67.19
65584;DHT22;62116;43.582;1.470;2023-04-24T14:02:40;18.17;68.72
65584;DHT22;62116;43.582;1.470;2023-04-24T14:05:05;18.10;68.78
65584;DHT22;62116;43.582;1.470;2023-04-24T14:07:31;18.07;69.24
65584;DHT22;62116;43.582;1.470;2023-04-24T14:09:57;18.09;68.99
65584;DHT22;62116;43.582;1.470;2023-04-24T14:12:22;17.99;69.12
65584;DHT22;62116;43.582;1.470;2023-04-24T14:14:48;17.93;70.27
65584;DHT22;62116;43.582;1.470;2023-04-24T14:17:14;17.87;70.21
65584;DHT22;62116;43.582;1.470;2023-04-24T14:19:39;17.78;70.60
65584;DHT22;62116;43.582;1.470;2023-04-24T14:22:05;17.69;69.88
65584;DHT22;62116;43.582;1.470;2023-04-24T14:24:30;17.58;69.07
65584;DHT22;62116;43.582;1.470;2023-04-24T14:26:56;17.53;70.26
65584;DHT22;62116;43.582;1.470;2023-04-24T14:29:21;17.46;69.11
65584;DHT22;62116;43.582;1.470;2023-04-24T14:31:47;17.46;70.47
65584;DHT22;62116;43.582;1.470;2023-04-24T14:34:13;17.46;70.32
65584;DHT22;62116;43.582;1.470;2023-04-24T14:36:39;17.46;69.71
65584;DHT22;62116;43.582;1.470;2023-04-24T14:39:05;17.42;69.44
65584;DHT22;62116;43.582;1.470;2023-04-24T14:41:32;17.43;69.07
65584;DHT22;62116;43.582;1.470;2023-04-24T14:44:01;17.39;69.01
65584;DHT22;62116;43.582;1.470;2023-04-24T14:46:28;17.35;69.97
65584;DHT22;62116;43.582;1.470;2023-04-24T14:48:54;17.24;70.27
65584;DHT22;62116;43.582;1.470;2023-04-24T14:51:19;17.17;71.49
65584;DHT22;62116;43.582;1.470;2023-04-24T14:53:45;17.14;72.13
65584;DHT22;62116;43.582;1.470;2023-04-24T14:56:12;17.11;72.17
65584;DHT22;62116;43.582;1.470;2023-04-24T14:58:38;17.14;71.52
65584;DHT22;62116;43.582;1.470;2023-04-24T15:01:03;17.15;72.11
65584;DHT22;62116;43.582;1.470;2023-04-24T15:03:29;17.12;72.12
65584;DHT22;62116;43.582;1.470;2023-04-24T15:05:54;17.12;72.49
65584;DHT22;62116;43.582;1.470;2023-04-24T15:08:20;17.08;71.88
65584;DHT22;62116;43.582;1.470;2023-04-24T15:10:46;17.07;71.61
65584;DHT22;62116;43.582;1.470;2023-04-24T15:13:12;17.07;72.32
65584;DHT22;62116;43.582;1.470;2023-04-24T15:15:37;17.07;71.09
65584;DHT22;62116;43.582;1.470;2023-04-24T15:18:04;17.15;72.57
65584;DHT22;62116;43.582;1.470;2023-04-24T15:20:30;17.20;71.93
65584;DHT22;62116;43.582;1.470;2023-04-24T15:22:56;17.28;71.88
65584;DHT22;62116;43.582;1.470;2023-04-24T15:25:21;17.36;71.08
65584;DHT22;62116;43.582;1.470;2023-04-24T15:27:47;17.43;71.71
65584;DHT22;62116;43.582;1.470;2023-04-24T15:30:13;17.49;71.25
65584;DHT22;62116;43.582;1.470;2023-04-24T15:32:39;17.56;72.33
65584;DHT22;62116;43.582;1.470;2023-04-24T15:35:05;17.56;71.75
65584;DHT22;62116;43.582;1.470;2023-04-24T15:37:31;17.62;71.73
65584;DHT22;62116;43.582;1.470;2023-04-24T15:39:59;17.63;71.35
65584;DHT22;62116;43.582;1.470;2023-04-24T15:42:26;17.59;70.62
65584;DHT22;62116;43.582;1.470;2023-04-24T15:44:51;17.55;69.50
65584;DHT22;62116;43.582;1.470;2023-04-24T15:47:17;17.55;70.06